sensor_id;sensor_type;location;lat;lon;timestamp;P1;durP1;ratioP1;P2;durP2;ratioP2
41305;SDS011;27051;50.376;19.152;2023-03-16T00:02:07;42.20;;;17.50;;
41305;SDS011;27051;50.376;19.152;2023-03-16T00:04:34;30.80;;;13.30;;
41305;SDS011;27051;50.376;19.152;2023-03-16T00:07:01;34.60;;;13.60;;
41305;SDS011;27051;50.376;19.152;2023-03-16T00:09:32;30.00;;;12.70;;
41305;SDS011;27051;50.376;19.152;2023-03-16T00:11:58;31.10;;;12.50;;
41305;SDS011;27051;50.376;19.152;2023-03-16T00:14:26;29.80;;;11.40;;
41305;SDS011;27051;50.376;19.152;2023-03-16T00:16:52;35.40;;;12.50;;
41305;SDS011;27051;50.376;19.152;2023-03-16T00:19:19;31.10;;;12.50;;
41305;SDS011;27051;50.376;19.152;2023-03-16T00:21:46;27.30;;;9.90;;
41305;SDS011;27051;50.376;19.152;2023-03-16T00:24:12;23.70;;;10.10;;
41305;SDS011;27051;50.376;19.152;2023-03-16T00:26:39;28.60;;;10.40;;
41305;SDS011;27051;50.376;19.152;2023-03-16T00:29:05;26.10;;;11.90;;
41305;SDS011;27051;50.376;19.152;2023-03-16T00:31:32;29.70;;;13.20;;
41305;SDS011;27051;50.376;19.152;2023-03-16T00:33:58;25.80;;;11.00;;
41305;SDS011;27051;50.376;19.152;2023-03-16T00:36:24;24.60;;;10.60;;
41305;SDS011;27051;50.376;19.152;2023-03-16T00:38:51;23.50;;;9.90;;
41305;SDS011;27051;50.376;19.152;2023-03-16T00:41:17;30.40;;;11.70;;
41305;SDS011;27051;50.376;19.152;2023-03-16T00:43:43;26.80;;;11.30;;
41305;SDS011;27051;50.376;19.152;2023-03-16T00:46:11;25.40;;;10.50;;
41305;SDS011;27051;50.376;19.152;2023-03-16T00:48:40;24.60;;;10.50;;
41305;SDS011;27051;50.376;19.152;2023-03-16T00:51:09;26.40;;;10.90;;
41305;SDS011;27051;50.376;19.152;2023-03-16T00:53:42;27.00;;;10.80;;
41305;SDS011;27051;50.376;19.152;2023-03-16T00:56:10;27.20;;;11.80;;
41305;SDS011;27051;50.376;19.152;2023-03-16T00:58:37;25.10;;;11.70;;
41305;SDS011;27051;50.376;19.152;2023-03-16T01:01:09;28.50;;;11.60;;
41305;SDS011;27051;50.376;19.152;2023-03-16T01:03:38;24.20;;;10.80;;
41305;SDS011;27051;50.376;19.152;2023-03-16T01:06:05;26.30;;;11.60;;
41305;SDS011;27051;50.376;19.152;2023-03-16T01:08:38;126.90;;;44.90;;
41305;SDS011;27051;50.376;19.152;2023-03-16T01:11:07;82.30;;;37.10;;
41305;SDS011;27051;50.376;19.152;2023-03-16T01:13:36;38.50;;;18.70;;
41305;SDS011;27051;50.376;19.152;2023-03-16T01:16:03;50.80;;;29.40;;
41305;SDS011;27051;50.376;19.152;2023-03-16T01:18:31;88.70;;;45.60;;
41305;SDS011;27051;50.376;19.152;2023-03-16T01:20:58;216.90;;;103.30;;
41305;SDS011;27051;50.376;19.152;2023-03-16T01:23:24;316.00;;;131.70;;
41305;SDS011;27051;50.376;19.152;2023-03-16T01:25:51;203.40;;;78.90;;
41305;SDS011;27051;50.376;19.152;2023-03-16T01:28:20;580.20;;;250.20;;
41305;SDS011;27051;50.376;19.152;2023-03-16T01:30:49;242.30;;;84.50;;
41305;SDS011;27051;50.376;19.152;2023-03-16T01:33:16;61.70;;;20.70;;
41305;SDS011;27051;50.376;19.152;2023-03-16T01:35:50;66.40;;;25.90;;
41305;SDS011;27051;50.376;19.152;2023-03-16T01:38:20;32.20;;;14.30;;
41305;SDS011;27051;50.376;19.152;2023-03-16T01:40:50;30.70;;;14.60;;
41305;SDS011;27051;50.376;19.152;2023-03-16T01:43:18;32.20;;;13.60;;
41305;SDS011;27051;50.376;19.152;2023-03-16T01:48:19;25.30;;;11.70;;
41305;SDS011;27051;50.376;19.152;2023-03-16T01:50:49;27.70;;;13.30;;
41305;SDS011;27051;50.376;19.152;2023-03-16T01:53:17;29.80;;;13.30;;
41305;SDS011;27051;50.376;19.152;2023-03-16T01:55:45;27.60;;;12.80;;
41305;SDS011;27051;50.376;19.152;2023-03-16T01:58:12;28.20;;;12.20;;
41305;SDS011;27051;50.376;19.152;2023-03-16T02:00:39;28.80;;;12.10;;
41305;SDS011;27051;50.376;19.152;2023-03-16T02:03:10;24.50;;;11.10;;
41305;SDS011;27051;50.376;19.152;2023-03-16T02:05:42;26.80;;;12.60;;
41305;SDS011;27051;50.376;19.152;2023-03-16T02:08:14;27.40;;;12.20;;
41305;SDS011;27051;50.376;19.152;2023-03-16T02:10:41;39.00;;;16.20;;
41305;SDS011;27051;50.376;19.152;2023-03-16T02:13:08;58.30;;;21.10;;
41305;SDS011;27051;50.376;19.152;2023-03-16T02:15:35;46.20;;;17.70;;
41305;SDS011;27051;50.376;19.152;2023-03-16T02:18:03;43.50;;;17.20;;
41305;SDS011;27051;50.376;19.152;2023-03-16T02:20:39;87.80;;;31.30;;
41305;SDS011;27051;50.376;19.152;2023-03-16T02:23:08;83.40;;;32.60;;
41305;SDS011;27051;50.376;19.152;2023-03-16T02:25:44;46.90;;;18.70;;
41305;SDS011;27051;50.376;19.152;2023-03-16T02:31:17;50.70;;;21.40;;
41305;SDS011;27051;50.376;19.152;2023-03-16T02:33:45;55.00;;;21.40;;
41305;SDS011;27051;50.376;19.152;2023-03-16T02:36:16;56.20;;;20.80;;
41305;SDS011;27051;50.376;19.152;2023-03-16T02:38:44;40.00;;;18.00;;
41305;SDS011;27051;50.376;19.152;2023-03-16T02:41:12;43.00;;;19.60;;
41305;SDS011;27051;50.376;19.152;2023-03-16T02:43:41;47.10;;;21.10;;
41305;SDS011;27051;50.376;19.152;2023-03-16T02:46:13;47.20;;;19.10;;
41305;SDS011;27051;50.376;19.152;2023-03-16T02:49:43;40.90;;;18.50;;
41305;SDS011;27051;50.376;19.152;2023-03-16T02:51:43;48.40;;;21.10;;
41305;SDS011;27051;50.376;19.152;2023-03-16T02:54:11;46.80;;;18.40;;
41305;SDS011;27051;50.376;19.152;2023-03-16T02:56:38;46.50;;;19.30;;
41305;SDS011;27051;50.376;19.152;2023-03-16T02:59:05;71.60;;;26.60;;
41305;SDS011;27051;50.376;19.152;2023-03-16T03:01:31;67.30;;;25.80;;
41305;SDS011;27051;50.376;19.152;2023-03-16T03:03:58;61.20;;;24.60;;
41305;SDS011;27051;50.376;19.152;2023-03-16T03:06:24;49.90;;;20.30;;
41305;SDS011;27051;50.376;19.152;2023-03-16T03:08:51;61.80;;;23.70;;
41305;SDS011;27051;50.376;19.152;2023-03-16T03:11:17;59.10;;;23.60;;
41305;SDS011;27051;50.376;19.152;2023-03-16T03:13:44;46.70;;;20.60;;
41305;SDS011;27051;50.376;19.152;2023-03-16T03:16:11;43.10;;;18.60;;
41305;SDS011;27051;50.376;19.152;2023-03-16T03:18:38;41.80;;;17.00;;
41305;SDS011;27051;50.376;19.152;2023-03-16T03:21:05;40.80;;;15.80;;
41305;SDS011;27051;50.376;19.152;2023-03-16T03:23:32;37.30;;;16.80;;
41305;SDS011;27051;50.376;19.152;2023-03-16T03:25:59;35.80;;;16.10;;
41305;SDS011;27051;50.376;19.152;2023-03-16T03:28:25;37.30;;;16.60;;
41305;SDS011;27051;50.376;19.152;2023-03-16T03:30:52;33.70;;;15.70;;
41305;SDS011;27051;50.376;19.152;2023-03-16T03:33:18;40.10;;;19.10;;
41305;SDS011;27051;50.376;19.152;2023-03-16T03:35:45;46.10;;;22.30;;
41305;SDS011;27051;50.376;19.152;2023-03-16T03:38:11;50.00;;;21.10;;
41305;SDS011;27051;50.376;19.152;2023-03-16T03:40:37;46.90;;;22.80;;
41305;SDS011;27051;50.376;19.152;2023-03-16T03:43:04;48.90;;;21.40;;
41305;SDS011;27051;50.376;19.152;2023-03-16T03:45:30;45.20;;;20.10;;
41305;SDS011;27051;50.376;19.152;2023-03-16T03:47:57;38.20;;;16.90;;
41305;SDS011;27051;50.376;19.152;2023-03-16T03:50:23;36.30;;;16.10;;
41305;SDS011;27051;50.376;19.152;2023-03-16T03:52:49;41.60;;;17.30;;
41305;SDS011;27051;50.376;19.152;2023-03-16T03:55:16;36.60;;;15.50;;
41305;SDS011;27051;50.376;19.152;2023-03-16T03:57:42;37.00;;;15.70;;
41305;SDS011;27051;50.376;19.152;2023-03-16T04:00:09;32.00;;;14.00;;
41305;SDS011;27051;50.376;19.152;2023-03-16T04:02:38;30.20;;;14.00;;
41305;SDS011;27051;50.376;19.152;2023-03-16T04:05:05;33.40;;;13.80;;
41305;SDS011;27051;50.376;19.152;2023-03-16T04:07:33;35.50;;;16.40;;
41305;SDS011;27051;50.376;19.152;2023-03-16T04:09:59;28.60;;;13.60;;
41305;SDS011;27051;50.376;19.152;2023-03-16T04:12:25;32.80;;;14.80;;
41305;SDS011;27051;50.376;19.152;2023-03-16T04:14:52;31.70;;;14.30;;
41305;SDS011;27051;50.376;19.152;2023-03-16T04:17:18;35.90;;;15.40;;
41305;SDS011;27051;50.376;19.152;2023-03-16T04:19:45;43.10;;;17.20;;
41305;SDS011;27051;50.376;19.152;2023-03-16T04:22:11;36.60;;;17.50;;
41305;SDS011;27051;50.376;19.152;2023-03-16T04:24:38;43.60;;;21.80;;
41305;SDS011;27051;50.376;19.152;2023-03-16T04:27:04;51.90;;;25.70;;
41305;SDS011;27051;50.376;19.152;2023-03-16T04:29:31;56.90;;;26.80;;
41305;SDS011;27051;50.376;19.152;2023-03-16T04:31:57;50.40;;;25.20;;
41305;SDS011;27051;50.376;19.152;2023-03-16T04:34:32;60.60;;;26.60;;
41305;SDS011;27051;50.376;19.152;2023-03-16T04:36:59;56.30;;;28.30;;
41305;SDS011;27051;50.376;19.152;2023-03-16T04:39:25;54.30;;;26.50;;
41305;SDS011;27051;50.376;19.152;2023-03-16T04:41:52;53.30;;;25.50;;
41305;SDS011;27051;50.376;19.152;2023-03-16T04:44:18;57.90;;;27.40;;
41305;SDS011;27051;50.376;19.152;2023-03-16T04:46:45;49.70;;;24.70;;
41305;SDS011;27051;50.376;19.152;2023-03-16T04:49:11;55.70;;;28.20;;
41305;SDS011;27051;50.376;19.152;2023-03-16T04:51:37;51.20;;;24.50;;
41305;SDS011;27051;50.376;19.152;2023-03-16T04:54:04;55.90;;;27.30;;
41305;SDS011;27051;50.376;19.152;2023-03-16T04:56:31;52.90;;;25.30;;
41305;SDS011;27051;50.376;19.152;2023-03-16T04:58:57;55.20;;;26.60;;
41305;SDS011;27051;50.376;19.152;2023-03-16T05:01:24;75.50;;;34.90;;
41305;SDS011;27051;50.376;19.152;2023-03-16T05:03:50;69.90;;;31.80;;
41305;SDS011;27051;50.376;19.152;2023-03-16T05:06:17;92.20;;;39.10;;
41305;SDS011;27051;50.376;19.152;2023-03-16T05:08:43;88.60;;;37.60;;
41305;SDS011;27051;50.376;19.152;2023-03-16T05:11:10;76.80;;;31.90;;
41305;SDS011;27051;50.376;19.152;2023-03-16T05:13:36;51.40;;;23.60;;
41305;SDS011;27051;50.376;19.152;2023-03-16T05:16:02;47.70;;;24.30;;
41305;SDS011;27051;50.376;19.152;2023-03-16T05:18:29;50.80;;;25.10;;
41305;SDS011;27051;50.376;19.152;2023-03-16T05:20:56;58.90;;;22.40;;
41305;SDS011;27051;50.376;19.152;2023-03-16T05:23:22;60.60;;;24.10;;
41305;SDS011;27051;50.376;19.152;2023-03-16T05:25:49;70.30;;;24.60;;
41305;SDS011;27051;50.376;19.152;2023-03-16T05:28:16;59.10;;;26.40;;
41305;SDS011;27051;50.376;19.152;2023-03-16T05:30:42;62.60;;;27.60;;
41305;SDS011;27051;50.376;19.152;2023-03-16T05:33:09;59.90;;;25.90;;
41305;SDS011;27051;50.376;19.152;2023-03-16T05:35:36;66.00;;;27.50;;
41305;SDS011;27051;50.376;19.152;2023-03-16T05:38:02;61.00;;;28.90;;
41305;SDS011;27051;50.376;19.152;2023-03-16T05:40:29;81.60;;;37.30;;
41305;SDS011;27051;50.376;19.152;2023-03-16T05:42:56;84.20;;;40.90;;
41305;SDS011;27051;50.376;19.152;2023-03-16T05:45:23;97.20;;;46.40;;
41305;SDS011;27051;50.376;19.152;2023-03-16T05:47:49;103.90;;;50.70;;
41305;SDS011;27051;50.376;19.152;2023-03-16T05:50:16;100.10;;;48.90;;
41305;SDS011;27051;50.376;19.152;2023-03-16T05:52:43;105.80;;;43.40;;
41305;SDS011;27051;50.376;19.152;2023-03-16T05:55:11;85.10;;;36.30;;
41305;SDS011;27051;50.376;19.152;2023-03-16T05:57:38;76.10;;;32.20;;
41305;SDS011;27051;50.376;19.152;2023-03-16T06:00:06;76.00;;;30.90;;
41305;SDS011;27051;50.376;19.152;2023-03-16T06:02:35;70.70;;;32.10;;
41305;SDS011;27051;50.376;19.152;2023-03-16T06:05:02;75.00;;;32.00;;
41305;SDS011;27051;50.376;19.152;2023-03-16T06:07:29;64.20;;;28.20;;
41305;SDS011;27051;50.376;19.152;2023-03-16T06:09:56;47.00;;;23.10;;
41305;SDS011;27051;50.376;19.152;2023-03-16T06:12:22;56.90;;;27.90;;
41305;SDS011;27051;50.376;19.152;2023-03-16T06:14:48;70.30;;;30.90;;
41305;SDS011;27051;50.376;19.152;2023-03-16T06:17:15;65.70;;;27.70;;
41305;SDS011;27051;50.376;19.152;2023-03-16T06:19:41;66.30;;;30.40;;
41305;SDS011;27051;50.376;19.152;2023-03-16T06:22:08;66.30;;;29.40;;
41305;SDS011;27051;50.376;19.152;2023-03-16T06:24:34;48.90;;;23.10;;
41305;SDS011;27051;50.376;19.152;2023-03-16T06:27:00;53.60;;;22.30;;
41305;SDS011;27051;50.376;19.152;2023-03-16T06:29:27;41.10;;;20.50;;
41305;SDS011;27051;50.376;19.152;2023-03-16T06:31:53;44.20;;;20.30;;
41305;SDS011;27051;50.376;19.152;2023-03-16T06:34:20;43.50;;;19.60;;
41305;SDS011;27051;50.376;19.152;2023-03-16T06:36:46;37.70;;;17.70;;
41305;SDS011;27051;50.376;19.152;2023-03-16T06:39:13;46.50;;;21.40;;
41305;SDS011;27051;50.376;19.152;2023-03-16T06:41:39;42.90;;;20.10;;
41305;SDS011;27051;50.376;19.152;2023-03-16T06:44:06;35.40;;;16.30;;
41305;SDS011;27051;50.376;19.152;2023-03-16T06:46:33;35.00;;;15.50;;
41305;SDS011;27051;50.376;19.152;2023-03-16T06:48:59;29.50;;;15.20;;
41305;SDS011;27051;50.376;19.152;2023-03-16T06:51:26;31.70;;;14.40;;
41305;SDS011;27051;50.376;19.152;2023-03-16T06:53:52;31.00;;;15.20;;
41305;SDS011;27051;50.376;19.152;2023-03-16T06:56:19;32.50;;;14.80;;
41305;SDS011;27051;50.376;19.152;2023-03-16T06:58:45;31.40;;;14.10;;
41305;SDS011;27051;50.376;19.152;2023-03-16T07:01:12;31.90;;;14.30;;
41305;SDS011;27051;50.376;19.152;2023-03-16T07:03:38;32.40;;;14.60;;
41305;SDS011;27051;50.376;19.152;2023-03-16T07:06:05;31.10;;;14.60;;
41305;SDS011;27051;50.376;19.152;2023-03-16T07:08:32;30.60;;;13.10;;
41305;SDS011;27051;50.376;19.152;2023-03-16T07:10:59;30.00;;;15.10;;
41305;SDS011;27051;50.376;19.152;2023-03-16T07:13:27;31.20;;;14.00;;
41305;SDS011;27051;50.376;19.152;2023-03-16T07:15:54;37.30;;;18.30;;
41305;SDS011;27051;50.376;19.152;2023-03-16T07:18:21;32.60;;;15.50;;
41305;SDS011;27051;50.376;19.152;2023-03-16T07:20:49;32.00;;;14.90;;
41305;SDS011;27051;50.376;19.152;2023-03-16T07:23:19;31.80;;;13.50;;
41305;SDS011;27051;50.376;19.152;2023-03-16T07:25:46;27.60;;;13.40;;
41305;SDS011;27051;50.376;19.152;2023-03-16T07:28:15;30.20;;;14.40;;
41305;SDS011;27051;50.376;19.152;2023-03-16T07:30:41;26.70;;;13.10;;
41305;SDS011;27051;50.376;19.152;2023-03-16T07:33:08;29.10;;;12.90;;
41305;SDS011;27051;50.376;19.152;2023-03-16T07:35:37;30.60;;;13.60;;
41305;SDS011;27051;50.376;19.152;2023-03-16T07:38:04;28.70;;;12.80;;
41305;SDS011;27051;50.376;19.152;2023-03-16T07:40:32;29.30;;;12.80;;
41305;SDS011;27051;50.376;19.152;2023-03-16T07:43:01;29.70;;;12.70;;
41305;SDS011;27051;50.376;19.152;2023-03-16T07:45:37;23.20;;;10.50;;
41305;SDS011;27051;50.376;19.152;2023-03-16T07:48:05;29.40;;;11.80;;
41305;SDS011;27051;50.376;19.152;2023-03-16T07:50:32;25.20;;;11.50;;
41305;SDS011;27051;50.376;19.152;2023-03-16T07:52:59;30.50;;;12.80;;
41305;SDS011;27051;50.376;19.152;2023-03-16T07:55:26;32.80;;;13.00;;
41305;SDS011;27051;50.376;19.152;2023-03-16T07:57:55;32.20;;;14.10;;
41305;SDS011;27051;50.376;19.152;2023-03-16T08:00:22;27.30;;;13.20;;
41305;SDS011;27051;50.376;19.152;2023-03-16T08:02:50;34.60;;;14.80;;
41305;SDS011;27051;50.376;19.152;2023-03-16T08:05:18;27.30;;;10.50;;
41305;SDS011;27051;50.376;19.152;2023-03-16T08:07:48;26.60;;;11.40;;
41305;SDS011;27051;50.376;19.152;2023-03-16T08:10:16;29.00;;;11.10;;
41305;SDS011;27051;50.376;19.152;2023-03-16T08:12:46;25.20;;;11.30;;
41305;SDS011;27051;50.376;19.152;2023-03-16T08:15:13;28.10;;;10.80;;
41305;SDS011;27051;50.376;19.152;2023-03-16T08:17:40;25.30;;;11.40;;
41305;SDS011;27051;50.376;19.152;2023-03-16T08:20:11;25.60;;;10.20;;
41305;SDS011;27051;50.376;19.152;2023-03-16T08:22:40;23.30;;;9.90;;
41305;SDS011;27051;50.376;19.152;2023-03-16T08:25:10;31.20;;;13.10;;
41305;SDS011;27051;50.376;19.152;2023-03-16T08:27:39;29.60;;;12.70;;
41305;SDS011;27051;50.376;19.152;2023-03-16T08:30:14;24.70;;;9.60;;
41305;SDS011;27051;50.376;19.152;2023-03-16T08:32:42;21.00;;;8.70;;
41305;SDS011;27051;50.376;19.152;2023-03-16T08:35:10;25.50;;;9.40;;
41305;SDS011;27051;50.376;19.152;2023-03-16T08:37:40;24.20;;;9.60;;
41305;SDS011;27051;50.376;19.152;2023-03-16T08:40:09;23.20;;;9.80;;
41305;SDS011;27051;50.376;19.152;2023-03-16T08:42:36;24.00;;;10.50;;
41305;SDS011;27051;50.376;19.152;2023-03-16T08:45:07;25.50;;;10.80;;
41305;SDS011;27051;50.376;19.152;2023-03-16T08:47:39;29.30;;;12.10;;
41305;SDS011;27051;50.376;19.152;2023-03-16T08:50:07;39.20;;;13.80;;
41305;SDS011;27051;50.376;19.152;2023-03-16T08:52:35;18.80;;;7.50;;
41305;SDS011;27051;50.376;19.152;2023-03-16T08:55:03;17.60;;;6.10;;
41305;SDS011;27051;50.376;19.152;2023-03-16T08:57:32;14.50;;;6.10;;
41305;SDS011;27051;50.376;19.152;2023-03-16T09:00:01;11.70;;;5.60;;
41305;SDS011;27051;50.376;19.152;2023-03-16T09:02:28;17.50;;;6.00;;
41305;SDS011;27051;50.376;19.152;2023-03-16T09:04:58;18.30;;;7.20;;
41305;SDS011;27051;50.376;19.152;2023-03-16T09:07:25;16.90;;;7.20;;
41305;SDS011;27051;50.376;19.152;2023-03-16T09:09:52;17.10;;;7.80;;
41305;SDS011;27051;50.376;19.152;2023-03-16T09:12:20;19.00;;;8.50;;
41305;SDS011;27051;50.376;19.152;2023-03-16T09:14:47;18.20;;;8.30;;
41305;SDS011;27051;50.376;19.152;2023-03-16T09:17:14;15.20;;;6.20;;
41305;SDS011;27051;50.376;19.152;2023-03-16T09:19:41;19.20;;;7.10;;
41305;SDS011;27051;50.376;19.152;2023-03-16T09:22:09;16.50;;;6.70;;
41305;SDS011;27051;50.376;19.152;2023-03-16T09:24:37;21.50;;;7.70;;
41305;SDS011;27051;50.376;19.152;2023-03-16T09:27:05;16.80;;;6.20;;
41305;SDS011;27051;50.376;19.152;2023-03-16T09:29:32;18.60;;;7.00;;
41305;SDS011;27051;50.376;19.152;2023-03-16T09:31:59;15.90;;;6.60;;
41305;SDS011;27051;50.376;19.152;2023-03-16T09:34:27;15.60;;;7.50;;
41305;SDS011;27051;50.376;19.152;2023-03-16T09:36:55;17.10;;;6.50;;
41305;SDS011;27051;50.376;19.152;2023-03-16T09:39:30;14.50;;;6.90;;
41305;SDS011;27051;50.376;19.152;2023-03-16T09:42:12;16.60;;;8.00;;
41305;SDS011;27051;50.376;19.152;2023-03-16T09:44:58;14.80;;;5.80;;
41305;SDS011;27051;50.376;19.152;2023-03-16T09:47:33;15.50;;;6.40;;
41305;SDS011;27051;50.376;19.152;2023-03-16T09:50:04;13.10;;;6.10;;
41305;SDS011;27051;50.376;19.152;2023-03-16T09:57:31;10.20;;;4.90;;
41305;SDS011;27051;50.376;19.152;2023-03-16T10:00:15;9.50;;;4.80;;
41305;SDS011;27051;50.376;19.152;2023-03-16T10:03:13;13.70;;;5.90;;
41305;SDS011;27051;50.376;19.152;2023-03-16T10:05:44;14.30;;;6.00;;
41305;SDS011;27051;50.376;19.152;2023-03-16T10:08:23;12.00;;;5.50;;
41305;SDS011;27051;50.376;19.152;2023-03-16T10:16:32;6.70;;;3.90;;
41305;SDS011;27051;50.376;19.152;2023-03-16T10:22:10;11.90;;;3.50;;
41305;SDS011;27051;50.376;19.152;2023-03-16T10:27:40;8.00;;;3.90;;
41305;SDS011;27051;50.376;19.152;2023-03-16T10:30:25;7.40;;;4.00;;
41305;SDS011;27051;50.376;19.152;2023-03-16T10:33:00;7.60;;;3.40;;
41305;SDS011;27051;50.376;19.152;2023-03-16T10:38:50;9.50;;;4.10;;
41305;SDS011;27051;50.376;19.152;2023-03-16T10:41:25;7.60;;;3.80;;
41305;SDS011;27051;50.376;19.152;2023-03-16T10:43:56;12.80;;;4.50;;
41305;SDS011;27051;50.376;19.152;2023-03-16T10:46:26;11.60;;;5.40;;
41305;SDS011;27051;50.376;19.152;2023-03-16T10:48:55;11.00;;;4.80;;
41305;SDS011;27051;50.376;19.152;2023-03-16T10:51:27;6.40;;;3.60;;
41305;SDS011;27051;50.376;19.152;2023-03-16T10:54:01;7.90;;;3.70;;
41305;SDS011;27051;50.376;19.152;2023-03-16T10:56:34;6.60;;;4.10;;
41305;SDS011;27051;50.376;19.152;2023-03-16T10:59:20;7.00;;;4.10;;
41305;SDS011;27051;50.376;19.152;2023-03-16T11:01:54;7.70;;;4.10;;
41305;SDS011;27051;50.376;19.152;2023-03-16T11:04:24;10.10;;;4.10;;
41305;SDS011;27051;50.376;19.152;2023-03-16T11:06:53;12.60;;;4.40;;
41305;SDS011;27051;50.376;19.152;2023-03-16T11:09:24;10.20;;;3.90;;
41305;SDS011;27051;50.376;19.152;2023-03-16T11:12:13;8.10;;;3.70;;
41305;SDS011;27051;50.376;19.152;2023-03-16T11:14:48;13.40;;;4.20;;
41305;SDS011;27051;50.376;19.152;2023-03-16T11:20:23;8.80;;;3.20;;
41305;SDS011;27051;50.376;19.152;2023-03-16T11:22:53;6.50;;;2.80;;
41305;SDS011;27051;50.376;19.152;2023-03-16T11:30:35;7.80;;;2.50;;
41305;SDS011;27051;50.376;19.152;2023-03-16T11:33:11;8.30;;;3.00;;
41305;SDS011;27051;50.376;19.152;2023-03-16T11:41:49;8.60;;;3.30;;
41305;SDS011;27051;50.376;19.152;2023-03-16T11:44:27;9.40;;;3.30;;
41305;SDS011;27051;50.376;19.152;2023-03-16T11:47:02;7.60;;;3.00;;
41305;SDS011;27051;50.376;19.152;2023-03-16T11:49:53;6.50;;;2.80;;
41305;SDS011;27051;50.376;19.152;2023-03-16T11:52:45;10.10;;;2.90;;
41305;SDS011;27051;50.376;19.152;2023-03-16T12:00:57;4.90;;;2.30;;
41305;SDS011;27051;50.376;19.152;2023-03-16T12:12:34;9.80;;;2.50;;
41305;SDS011;27051;50.376;19.152;2023-03-16T12:18:12;6.30;;;2.70;;
41305;SDS011;27051;50.376;19.152;2023-03-16T12:20:55;10.50;;;3.40;;
41305;SDS011;27051;50.376;19.152;2023-03-16T12:23:34;10.30;;;3.90;;
41305;SDS011;27051;50.376;19.152;2023-03-16T12:26:06;11.10;;;4.30;;
41305;SDS011;27051;50.376;19.152;2023-03-16T12:28:34;9.50;;;3.20;;
41305;SDS011;27051;50.376;19.152;2023-03-16T12:31:05;6.50;;;3.00;;
41305;SDS011;27051;50.376;19.152;2023-03-16T12:33:42;8.50;;;2.90;;
41305;SDS011;27051;50.376;19.152;2023-03-16T12:48:51;7.00;;;3.00;;
41305;SDS011;27051;50.376;19.152;2023-03-16T12:51:32;10.00;;;3.00;;
41305;SDS011;27051;50.376;19.152;2023-03-16T12:54:00;11.60;;;3.00;;
41305;SDS011;27051;50.376;19.152;2023-03-16T12:56:30;8.90;;;3.60;;
41305;SDS011;27051;50.376;19.152;2023-03-16T13:01:37;6.10;;;2.50;;
41305;SDS011;27051;50.376;19.152;2023-03-16T13:04:15;5.60;;;2.20;;
41305;SDS011;27051;50.376;19.152;2023-03-16T13:07:05;8.60;;;3.10;;
41305;SDS011;27051;50.376;19.152;2023-03-16T13:09:38;10.20;;;3.30;;
41305;SDS011;27051;50.376;19.152;2023-03-16T13:12:20;12.90;;;3.60;;
41305;SDS011;27051;50.376;19.152;2023-03-16T13:14:48;13.10;;;5.50;;
41305;SDS011;27051;50.376;19.152;2023-03-16T13:19:44;7.90;;;3.50;;
41305;SDS011;27051;50.376;19.152;2023-03-16T13:23:18;8.70;;;2.90;;
41305;SDS011;27051;50.376;19.152;2023-03-16T13:25:21;7.60;;;2.90;;
41305;SDS011;27051;50.376;19.152;2023-03-16T13:28:00;9.50;;;3.60;;
41305;SDS011;27051;50.376;19.152;2023-03-16T13:30:31;9.20;;;2.80;;
41305;SDS011;27051;50.376;19.152;2023-03-16T13:33:04;13.70;;;3.20;;
41305;SDS011;27051;50.376;19.152;2023-03-16T13:35:46;8.30;;;3.50;;
41305;SDS011;27051;50.376;19.152;2023-03-16T13:38:15;12.20;;;4.30;;
41305;SDS011;27051;50.376;19.152;2023-03-16T13:40:44;9.50;;;4.40;;
41305;SDS011;27051;50.376;19.152;2023-03-16T13:43:14;11.50;;;4.20;;
41305;SDS011;27051;50.376;19.152;2023-03-16T13:45:45;11.20;;;4.30;;
41305;SDS011;27051;50.376;19.152;2023-03-16T13:48:16;9.80;;;4.10;;
41305;SDS011;27051;50.376;19.152;2023-03-16T13:51:09;7.50;;;3.20;;
41305;SDS011;27051;50.376;19.152;2023-03-16T13:53:40;9.50;;;3.20;;
41305;SDS011;27051;50.376;19.152;2023-03-16T13:56:20;3.60;;;2.50;;
41305;SDS011;27051;50.376;19.152;2023-03-16T13:58:49;7.60;;;3.40;;
41305;SDS011;27051;50.376;19.152;2023-03-16T14:03:57;8.60;;;3.70;;
41305;SDS011;27051;50.376;19.152;2023-03-16T14:06:27;9.10;;;3.50;;
41305;SDS011;27051;50.376;19.152;2023-03-16T14:08:56;7.30;;;3.50;;
41305;SDS011;27051;50.376;19.152;2023-03-16T14:11:25;8.90;;;4.50;;
41305;SDS011;27051;50.376;19.152;2023-03-16T14:13:53;6.70;;;2.90;;
41305;SDS011;27051;50.376;19.152;2023-03-16T14:16:22;7.80;;;4.10;;
41305;SDS011;27051;50.376;19.152;2023-03-16T14:18:52;7.80;;;3.30;;
41305;SDS011;27051;50.376;19.152;2023-03-16T14:21:24;9.40;;;3.10;;
41305;SDS011;27051;50.376;19.152;2023-03-16T14:23:52;12.90;;;4.10;;
41305;SDS011;27051;50.376;19.152;2023-03-16T14:26:22;10.00;;;3.40;;
41305;SDS011;27051;50.376;19.152;2023-03-16T14:28:53;5.90;;;2.80;;
41305;SDS011;27051;50.376;19.152;2023-03-16T14:31:21;7.60;;;2.90;;
41305;SDS011;27051;50.376;19.152;2023-03-16T14:33:47;7.80;;;2.80;;
41305;SDS011;27051;50.376;19.152;2023-03-16T14:36:14;10.50;;;4.80;;
41305;SDS011;27051;50.376;19.152;2023-03-16T14:38:42;8.50;;;6.40;;
41305;SDS011;27051;50.376;19.152;2023-03-16T14:41:16;16.90;;;12.50;;
41305;SDS011;27051;50.376;19.152;2023-03-16T14:43:50;26.20;;;18.20;;
41305;SDS011;27051;50.376;19.152;2023-03-16T14:46:27;13.10;;;6.70;;
41305;SDS011;27051;50.376;19.152;2023-03-16T14:49:25;5.90;;;3.30;;
41305;SDS011;27051;50.376;19.152;2023-03-16T14:51:57;6.10;;;3.50;;
41305;SDS011;27051;50.376;19.152;2023-03-16T14:54:27;9.80;;;4.20;;
41305;SDS011;27051;50.376;19.152;2023-03-16T14:56:58;10.70;;;4.60;;
41305;SDS011;27051;50.376;19.152;2023-03-16T14:59:26;6.00;;;3.10;;
41305;SDS011;27051;50.376;19.152;2023-03-16T15:01:53;9.70;;;3.20;;
41305;SDS011;27051;50.376;19.152;2023-03-16T15:04:24;8.20;;;3.20;;
41305;SDS011;27051;50.376;19.152;2023-03-16T15:06:57;7.50;;;3.40;;
41305;SDS011;27051;50.376;19.152;2023-03-16T15:09:37;9.00;;;3.80;;
41305;SDS011;27051;50.376;19.152;2023-03-16T15:12:12;8.30;;;3.70;;
41305;SDS011;27051;50.376;19.152;2023-03-16T15:14:43;6.30;;;3.00;;
41305;SDS011;27051;50.376;19.152;2023-03-16T15:17:09;6.50;;;3.20;;
41305;SDS011;27051;50.376;19.152;2023-03-16T15:19:35;8.20;;;2.70;;
41305;SDS011;27051;50.376;19.152;2023-03-16T15:22:03;6.20;;;3.10;;
41305;SDS011;27051;50.376;19.152;2023-03-16T15:24:30;6.00;;;2.70;;
41305;SDS011;27051;50.376;19.152;2023-03-16T15:27:04;9.80;;;3.30;;
41305;SDS011;27051;50.376;19.152;2023-03-16T15:29:43;7.30;;;3.50;;
41305;SDS011;27051;50.376;19.152;2023-03-16T15:32:11;9.30;;;3.80;;
41305;SDS011;27051;50.376;19.152;2023-03-16T15:34:39;14.00;;;5.00;;
41305;SDS011;27051;50.376;19.152;2023-03-16T15:37:07;10.00;;;4.50;;
41305;SDS011;27051;50.376;19.152;2023-03-16T15:39:38;10.50;;;4.30;;
41305;SDS011;27051;50.376;19.152;2023-03-16T15:42:13;9.60;;;2.80;;
41305;SDS011;27051;50.376;19.152;2023-03-16T15:44:44;6.40;;;2.80;;
41305;SDS011;27051;50.376;19.152;2023-03-16T15:47:11;8.80;;;3.50;;
41305;SDS011;27051;50.376;19.152;2023-03-16T15:49:38;12.30;;;3.60;;